createdAt,value
2023-02-22T00:02:25.637Z,100113.84
2023-02-22T00:04:55.036Z,100125.38
2023-02-22T00:07:26.198Z,100113.84
2023-02-22T00:09:54.400Z,100121.91
2023-02-22T00:12:22.573Z,100109.06
2023-02-22T00:14:51.277Z,100109.88
2023-02-22T00:17:20.752Z,100108.94
2023-02-22T00:19:50.329Z,100113.25
2023-02-22T00:22:19.153Z,100108.38
2023-02-22T00:24:48.393Z,100110.91
2023-02-22T00:27:16.983Z,100109.31
2023-02-22T00:29:46.425Z,100108.53
2023-02-22T00:32:15.488Z,100114.69
2023-02-22T00:34:45.316Z,100112.66
2023-02-22T00:37:13.387Z,100105.56
2023-02-22T00:39:41.812Z,100102.56
2023-02-22T00:42:09.919Z,100105.44
2023-02-22T00:44:38.035Z,100109.53
2023-02-22T00:47:06.137Z,100106.56
2023-02-22T00:49:34.978Z,100107.81
2023-02-22T00:52:05.396Z,100107.81
2023-02-22T00:54:33.520Z,100110.56
2023-02-22T00:57:01.673Z,100112.44
2023-02-22T00:59:31.250Z,100114.34
2023-02-22T01:01:59.782Z,100108.84
2023-02-22T01:04:28.079Z,100110.25
2023-02-22T01:06:56.373Z,100114.38
2023-02-22T01:09:25.842Z,100111.06
2023-02-22T01:11:56.472Z,100115.78
2023-02-22T01:14:26.783Z,100117.38
2023-02-22T01:16:55.572Z,100123.34
2023-02-22T01:19:24.419Z,100110.09
2023-02-22T01:21:52.898Z,100116.56
2023-02-22T01:24:21.053Z,100110.88
2023-02-22T01:26:53.630Z,100107.44
2023-02-22T01:29:22.424Z,100113.25
2023-02-22T01:31:55.704Z,100105.69
2023-02-22T01:34:26.115Z,100111.38
2023-02-22T01:36:54.238Z,100114.06
2023-02-22T01:39:22.321Z,100106.78
2023-02-22T01:41:53.763Z,100104.41
2023-02-22T01:44:28.082Z,100106.47
2023-02-22T01:46:56.530Z,100115.16
2023-02-22T01:49:26.510Z,100120.84
2023-02-22T01:51:59.048Z,100136.28
2023-02-22T01:54:31.055Z,100142.47
2023-02-22T01:57:06.524Z,100140.84
2023-02-22T01:59:37.509Z,100138.34
2023-02-22T02:02:06.274Z,100149.03
2023-02-22T02:04:36.418Z,100157.31
2023-02-22T02:07:08.965Z,100152.78
2023-02-22T02:09:41.475Z,100159.38
2023-02-22T02:12:13.699Z,100150.81
2023-02-22T02:14:43.980Z,100162.06
2023-02-22T02:17:14.404Z,100155.47
2023-02-22T02:19:47.725Z,100159.16
2023-02-22T02:22:31.624Z,100168.00
2023-02-22T02:25:26.649Z,100172.72
2023-02-22T02:28:28.367Z,100170.09
2023-02-22T02:31:27.967Z,100166.84
2023-02-22T02:34:02.202Z,100161.91
2023-02-22T02:36:34.281Z,100173.66
2023-02-22T02:39:10.385Z,100164.63
2023-02-22T02:41:44.282Z,100169.97
2023-02-22T02:44:17.045Z,100168.41
2023-02-22T02:46:51.564Z,100171.69
2023-02-22T02:49:26.633Z,100169.13
2023-02-22T02:51:57.681Z,100173.81
2023-02-22T02:54:26.588Z,100174.53
2023-02-22T02:56:54.695Z,100176.00
2023-02-22T02:59:29.275Z,100183.06
2023-02-22T03:02:14.005Z,100176.16
2023-02-22T03:04:54.688Z,100178.84
2023-02-22T03:07:39.088Z,100173.78
2023-02-22T03:10:22.337Z,100183.88
2023-02-22T03:12:58.773Z,100190.53
2023-02-22T03:15:36.952Z,100192.81
2023-02-22T03:18:09.197Z,100190.53
2023-02-22T03:20:46.629Z,100196.56
2023-02-22T03:23:25.479Z,100185.06
2023-02-22T03:25:57.269Z,100184.88
2023-02-22T03:28:29.005Z,100193.88
2023-02-22T03:31:02.172Z,100189.13
2023-02-22T03:33:36.602Z,100196.06
2023-02-22T03:36:13.577Z,100192.38
2023-02-22T03:38:44.035Z,100191.19
2023-02-22T03:41:15.405Z,100191.41
2023-02-22T03:43:47.314Z,100193.78
2023-02-22T03:46:19.401Z,100193.97
2023-02-22T03:48:54.208Z,100192.09
2023-02-22T03:51:25.045Z,100185.47
2023-02-22T03:53:53.833Z,100189.44
2023-02-22T03:56:25.176Z,100188.94
2023-02-22T03:58:53.919Z,100188.44
2023-02-22T04:01:23.937Z,100186.53
2023-02-22T04:03:52.023Z,100193.66
2023-02-22T04:06:20.220Z,100195.13
2023-02-22T04:08:49.858Z,100185.53
2023-02-22T04:11:18.348Z,100185.06
2023-02-22T04:13:46.582Z,100178.72
2023-02-22T04:16:14.753Z,100175.56
2023-02-22T04:18:42.981Z,100177.16
2023-02-22T04:21:11.252Z,100169.03
2023-02-22T04:23:39.342Z,100174.00
2023-02-22T04:26:08.812Z,100172.31
2023-02-22T04:28:36.924Z,100174.78
2023-02-22T04:31:05.366Z,100167.19
2023-02-22T04:33:33.755Z,100179.25
2023-02-22T04:36:01.922Z,100172.38
2023-02-22T04:38:30.136Z,100188.19
2023-02-22T04:40:58.335Z,100190.13
2023-02-22T04:43:27.940Z,100195.28
2023-02-22T04:45:56.062Z,100191.84
2023-02-22T04:48:24.310Z,100198.84
2023-02-22T04:50:52.415Z,100195.66
2023-02-22T04:53:20.541Z,100195.75
2023-02-22T04:55:48.805Z,100202.09
2023-02-22T04:58:16.971Z,100209.19
2023-02-22T05:00:46.766Z,100209.69
2023-02-22T05:03:15.571Z,100217.41
2023-02-22T05:05:43.944Z,100211.59
2023-02-22T05:08:12.101Z,100200.94
2023-02-22T05:10:40.155Z,100209.16
2023-02-22T05:13:09.359Z,100203.09
2023-02-22T05:15:37.689Z,100216.69
2023-02-22T05:18:07.305Z,100234.00
2023-02-22T05:20:37.090Z,100229.44
2023-02-22T05:23:07.826Z,100241.69
2023-02-22T05:25:35.923Z,100244.00
2023-02-22T05:28:06.014Z,100247.09
2023-02-22T05:30:44.169Z,100248.50
2023-02-22T05:33:14.238Z,100253.19
2023-02-22T05:35:42.384Z,100244.94
2023-02-22T05:38:12.405Z,100247.16
2023-02-22T05:40:40.516Z,100255.09
2023-02-22T05:43:08.825Z,100258.34
2023-02-22T05:45:37.352Z,100267.66
2023-02-22T05:48:05.978Z,100272.53
2023-02-22T05:50:36.116Z,100276.00
2023-02-22T05:53:05.791Z,100281.66
2023-02-22T05:55:35.025Z,100281.13
2023-02-22T05:58:05.922Z,100282.03
2023-02-22T06:00:34.527Z,100282.69
2023-02-22T06:03:07.052Z,100285.06
2023-02-22T06:05:37.375Z,100282.19
2023-02-22T06:08:07.591Z,100286.38
2023-02-22T06:10:36.073Z,100288.97
2023-02-22T06:13:05.792Z,100292.81
2023-02-22T06:15:34.406Z,100294.75
2023-02-22T06:18:03.821Z,100304.22
2023-02-22T06:20:33.483Z,100300.94
2023-02-22T06:23:02.991Z,100301.22
2023-02-22T06:25:32.880Z,100304.50
2023-02-22T06:28:02.150Z,100311.41
2023-02-22T06:30:31.314Z,100313.97
2023-02-22T06:32:59.499Z,100321.78
2023-02-22T06:35:27.989Z,100315.19
2023-02-22T06:37:56.150Z,100315.19
2023-02-22T06:40:29.623Z,100320.00
2023-02-22T06:42:58.496Z,100325.09
2023-02-22T06:45:27.225Z,100324.28
2023-02-22T06:47:55.770Z,100333.22
2023-02-22T06:50:27.225Z,100330.34
2023-02-22T06:52:55.881Z,100327.66
2023-02-22T06:55:27.040Z,100323.25
2023-02-22T06:57:55.200Z,100318.78
2023-02-22T07:00:28.953Z,100323.53
2023-02-22T07:02:57.777Z,100321.97
2023-02-22T07:05:27.888Z,100318.97
2023-02-22T07:07:57.644Z,100319.28
2023-02-22T07:10:29.701Z,100323.34
2023-02-22T07:12:57.869Z,100321.66
2023-02-22T07:15:28.691Z,100325.53
2023-02-22T07:17:57.144Z,100327.78
2023-02-22T07:20:26.730Z,100328.78
2023-02-22T07:22:54.954Z,100320.75
2023-02-22T07:25:24.539Z,100318.34
2023-02-22T07:27:54.155Z,100315.97
2023-02-22T07:30:26.184Z,100319.28
2023-02-22T07:32:55.685Z,100322.75
2023-02-22T07:35:26.448Z,100313.41
2023-02-22T07:37:56.848Z,100309.19
2023-02-22T07:40:26.122Z,100315.97
2023-02-22T07:42:58.037Z,100309.97
2023-02-22T07:45:28.327Z,100321.63
2023-02-22T07:47:57.189Z,100312.69
2023-02-22T07:50:26.615Z,100310.44
2023-02-22T07:52:56.939Z,100305.53
2023-02-22T07:55:27.409Z,100314.53
2023-02-22T07:57:59.356Z,100312.94
2023-02-22T08:00:29.448Z,100318.97
2023-02-22T08:02:58.332Z,100316.91
2023-02-22T08:05:28.104Z,100312.00
2023-02-22T08:07:56.670Z,100315.31
2023-02-22T08:10:26.696Z,100319.78
2023-02-22T08:12:57.110Z,100320.50
2023-02-22T08:15:29.566Z,100320.53
2023-02-22T08:17:58.893Z,100319.41
2023-02-22T08:20:27.208Z,100316.09
2023-02-22T08:22:56.423Z,100319.03
2023-02-22T08:25:27.316Z,100314.31
2023-02-22T08:28:01.367Z,100320.75
2023-02-22T08:30:31.268Z,100324.09
2023-02-22T08:33:00.686Z,100325.53
2023-02-22T08:35:28.971Z,100319.38
2023-02-22T08:38:00.132Z,100320.19
2023-02-22T08:40:31.173Z,100316.72
2023-02-22T08:43:01.683Z,100322.50
2023-02-22T08:45:30.569Z,100320.00
2023-02-22T08:47:59.355Z,100324.53
2023-02-22T08:50:29.362Z,100315.00
2023-02-22T08:52:59.440Z,100325.56
2023-02-22T08:55:32.396Z,100320.38
2023-02-22T08:58:03.843Z,100332.75
2023-02-22T09:00:34.296Z,100321.94
2023-02-22T09:03:04.032Z,100333.94
2023-02-22T09:05:32.483Z,100331.38
2023-02-22T09:08:01.056Z,100336.97
2023-02-22T09:10:31.068Z,100328.47
2023-02-22T09:13:02.386Z,100323.88
2023-02-22T09:15:31.780Z,100329.25
2023-02-22T09:18:00.752Z,100342.50
2023-02-22T09:20:29.732Z,100344.25
2023-02-22T09:22:58.220Z,100344.22
2023-02-22T09:25:27.285Z,100345.81
2023-02-22T09:27:56.310Z,100345.16
2023-02-22T09:30:32.238Z,100340.63
2023-02-22T09:33:02.290Z,100349.53
2023-02-22T09:35:30.682Z,100343.78
2023-02-22T09:38:01.515Z,100346.31
2023-02-22T09:40:32.632Z,100360.72
2023-02-22T09:43:15.208Z,100351.06
2023-02-22T09:46:03.213Z,100351.94
2023-02-22T09:48:33.130Z,100349.69
2023-02-22T09:51:04.315Z,100346.94
2023-02-22T09:53:37.093Z,100348.97
2023-02-22T09:56:11.177Z,100350.56
2023-02-22T09:58:43.194Z,100349.63
2023-02-22T10:01:28.393Z,100350.56
2023-02-22T10:04:03.151Z,100347.06
2023-02-22T10:06:33.641Z,100357.06
2023-02-22T10:09:08.058Z,100346.91
2023-02-22T10:11:52.413Z,100352.78
2023-02-22T10:14:44.219Z,100342.38
2023-02-22T10:17:24.120Z,100339.84
2023-02-22T10:20:06.246Z,100348.31
2023-02-22T10:22:46.155Z,100342.53
2023-02-22T10:25:18.170Z,100338.13
2023-02-22T10:27:50.212Z,100338.19
2023-02-22T10:30:25.244Z,100335.50
2023-02-22T10:33:00.848Z,100342.94
2023-02-22T10:35:31.511Z,100330.31
2023-02-22T10:38:05.437Z,100331.63
2023-02-22T10:40:33.846Z,100319.25
2023-02-22T10:43:06.583Z,100320.47
2023-02-22T10:45:37.252Z,100321.94
2023-02-22T10:48:11.722Z,100313.28
2023-02-22T10:50:42.428Z,100318.66
2023-02-22T10:53:11.598Z,100316.13
2023-02-22T10:56:24.406Z,100321.78
2023-02-22T10:58:55.694Z,100312.34
2023-02-22T11:01:28.260Z,100329.06
2023-02-22T11:04:04.296Z,100313.13
2023-02-22T11:06:35.486Z,100324.63
2023-02-22T11:09:11.509Z,100325.28
2023-02-22T11:11:41.334Z,100320.03
2023-02-22T11:14:10.864Z,100326.28
2023-02-22T11:16:41.818Z,100325.63
2023-02-22T11:19:24.169Z,100319.50
2023-02-22T11:21:55.471Z,100308.94
2023-02-22T11:24:30.291Z,100323.34
2023-02-22T11:27:07.614Z,100338.13
2023-02-22T11:29:38.328Z,100330.38
2023-02-22T11:32:22.613Z,100326.91
2023-02-22T11:35:03.577Z,100327.53
2023-02-22T11:37:38.256Z,100331.53
2023-02-22T11:40:14.009Z,100325.41
2023-02-22T11:42:42.177Z,100328.44
2023-02-22T11:45:20.844Z,100334.00
2023-02-22T11:47:59.175Z,100340.13
2023-02-22T11:50:32.039Z,100327.00
2023-02-22T11:53:25.415Z,100325.97
2023-02-22T11:56:10.703Z,100327.16
2023-02-22T11:58:47.325Z,100321.56
2023-02-22T12:01:26.475Z,100332.97
2023-02-22T12:04:40.421Z,100335.00
2023-02-22T12:07:38.275Z,100338.88
2023-02-22T12:10:22.898Z,100328.72
2023-02-22T12:13:09.796Z,100323.56
2023-02-22T12:15:43.983Z,100325.56
2023-02-22T12:18:25.914Z,100332.59
2023-02-22T12:20:58.636Z,100330.13
2023-02-22T12:23:32.619Z,100325.88
2023-02-22T12:26:06.827Z,100335.72
2023-02-22T12:28:39.445Z,100335.16
2023-02-22T12:31:21.140Z,100331.41
2023-02-22T12:33:56.824Z,100339.91
2023-02-22T12:36:33.616Z,100328.00
2023-02-22T12:39:07.597Z,100326.09
2023-02-22T12:41:46.011Z,100336.13
2023-02-22T12:44:20.367Z,100341.09
2023-02-22T12:46:52.754Z,100346.91
2023-02-22T12:49:28.328Z,100341.13
2023-02-22T12:52:21.262Z,100344.41
2023-02-22T12:54:57.634Z,100348.38
2023-02-22T12:57:38.031Z,100351.78
2023-02-22T13:00:11.298Z,100349.44
2023-02-22T13:02:45.291Z,100358.28
2023-02-22T13:05:17.864Z,100361.47
2023-02-22T13:07:57.713Z,100357.19
2023-02-22T13:10:36.667Z,100358.31
2023-02-22T13:13:16.398Z,100372.50
2023-02-22T13:15:52.755Z,100366.03
2023-02-22T13:18:27.684Z,100370.06
2023-02-22T13:21:02.091Z,100374.19
2023-02-22T13:23:44.411Z,100374.97
2023-02-22T13:26:21.568Z,100381.81
2023-02-22T13:28:59.743Z,100374.84
2023-02-22T13:31:42.120Z,100391.25
2023-02-22T13:34:54.381Z,100388.09
2023-02-22T13:37:47.192Z,100390.41
2023-02-22T13:40:44.672Z,100392.63
2023-02-22T13:43:29.399Z,100391.81
2023-02-22T13:46:28.287Z,100394.06
2023-02-22T13:49:31.607Z,100403.63
2023-02-22T13:52:02.310Z,100397.41
2023-02-22T13:54:41.653Z,100398.50
2023-02-22T13:57:21.295Z,100402.47
2023-02-22T13:59:49.690Z,100409.44
2023-02-22T14:02:58.976Z,100409.38
2023-02-22T14:05:51.640Z,100415.03
2023-02-22T14:08:47.946Z,100416.88
2023-02-22T14:11:56.853Z,100413.03
2023-02-22T14:14:25.884Z,100424.72
2023-02-22T14:17:23.325Z,100421.94
2023-02-22T14:20:32.232Z,100425.69
2023-02-22T14:23:31.182Z,100420.16
2023-02-22T14:26:12.797Z,100435.59
2023-02-22T14:28:48.810Z,100430.44
2023-02-22T14:31:34.403Z,100437.50
2023-02-22T14:34:07.803Z,100435.78
2023-02-22T14:36:46.047Z,100437.66
2023-02-22T14:39:20.955Z,100433.59
2023-02-22T14:41:57.655Z,100439.91
2023-02-22T14:44:30.440Z,100438.53
2023-02-22T14:47:02.586Z,100448.00
2023-02-22T14:49:36.238Z,100441.34
2023-02-22T14:52:16.156Z,100435.13
2023-02-22T14:54:58.097Z,100438.25
2023-02-22T14:57:33.333Z,100435.91
2023-02-22T15:00:19.775Z,100437.06
2023-02-22T15:02:49.501Z,100438.75
2023-02-22T15:05:20.999Z,100446.06
2023-02-22T15:07:56.902Z,100448.06
2023-02-22T15:10:29.388Z,100455.56
2023-02-22T15:13:09.876Z,100450.44
2023-02-22T15:15:40.825Z,100449.78
2023-02-22T15:18:22.093Z,100445.81
2023-02-22T15:20:56.245Z,100457.06
2023-02-22T15:23:33.403Z,100450.13
2023-02-22T15:26:01.971Z,100458.41
2023-02-22T15:28:32.316Z,100459.94
2023-02-22T15:31:18.335Z,100468.53
2023-02-22T15:33:47.173Z,100459.03
2023-02-22T15:36:17.922Z,100466.34
2023-02-22T15:38:51.560Z,100457.59
2023-02-22T15:41:28.027Z,100460.53
2023-02-22T15:44:14.231Z,100462.97
2023-02-22T15:46:49.735Z,100469.22
2023-02-22T15:49:24.692Z,100469.22
2023-02-22T15:52:06.967Z,100463.06
2023-02-22T15:54:49.049Z,100464.19
2023-02-22T15:57:20.315Z,100467.72
2023-02-22T15:59:56.114Z,100479.97
2023-02-22T16:02:35.917Z,100479.16
2023-02-22T16:05:08.617Z,100473.53
2023-02-22T16:07:45.448Z,100477.31
2023-02-22T16:10:33.870Z,100476.31
2023-02-22T16:13:16.641Z,100487.69
2023-02-22T16:15:57.631Z,100483.91
2023-02-22T16:18:31.271Z,100491.13
2023-02-22T16:21:01.439Z,100499.41
2023-02-22T16:23:30.911Z,100503.19
2023-02-22T16:26:25.389Z,100499.22
2023-02-22T16:28:56.311Z,100501.09
2023-02-22T16:31:26.439Z,100501.38
2023-02-22T16:33:55.227Z,100502.72
2023-02-22T16:36:37.761Z,100519.19
2023-02-22T16:39:07.683Z,100509.88
2023-02-22T16:41:37.381Z,100516.59
2023-02-22T16:44:07.825Z,100522.25
2023-02-22T16:46:38.058Z,100517.91
2023-02-22T16:49:06.677Z,100514.97
2023-02-22T16:51:42.168Z,100520.84
2023-02-22T16:54:14.030Z,100523.25
2023-02-22T16:56:43.669Z,100526.47
2023-02-22T16:59:15.460Z,100538.47
2023-02-22T17:01:44.488Z,100524.59
2023-02-22T17:04:17.732Z,100527.81
2023-02-22T17:06:46.201Z,100524.34
2023-02-22T17:09:16.517Z,100534.28
2023-02-22T17:11:46.471Z,100535.63
2023-02-22T17:14:19.237Z,100536.97
2023-02-22T17:16:47.850Z,100535.84
2023-02-22T17:19:17.682Z,100531.34
2023-02-22T17:21:45.917Z,100531.06
2023-02-22T17:24:14.515Z,100536.13
2023-02-22T17:26:45.484Z,100542.84
2023-02-22T17:29:15.358Z,100533.75
2023-02-22T17:31:44.256Z,100546.72
2023-02-22T17:34:12.646Z,100541.72
2023-02-22T17:36:40.930Z,100543.84
2023-02-22T17:39:10.743Z,100537.69
2023-02-22T17:41:40.697Z,100538.50
2023-02-22T17:44:10.876Z,100545.66
2023-02-22T17:46:40.928Z,100536.34
2023-02-22T17:49:09.295Z,100534.25
2023-02-22T17:51:42.654Z,100532.38
2023-02-22T17:54:10.825Z,100534.19
2023-02-22T17:56:38.932Z,100525.63
2023-02-22T17:59:09.198Z,100533.13
2023-02-22T18:01:39.271Z,100532.56
2023-02-22T18:04:07.853Z,100537.41
2023-02-22T18:06:38.120Z,100531.81
2023-02-22T18:09:10.759Z,100531.53
2023-02-22T18:11:41.086Z,100539.00
2023-02-22T18:14:10.923Z,100531.75
2023-02-22T18:16:41.591Z,100527.75
2023-02-22T18:19:09.833Z,100521.34
2023-02-22T18:21:38.701Z,100530.34
2023-02-22T18:24:08.764Z,100542.34
2023-02-22T18:26:39.095Z,100532.00
2023-02-22T18:29:07.391Z,100535.97
2023-02-22T18:31:35.699Z,100531.66
2023-02-22T18:34:05.454Z,100533.63
2023-02-22T18:36:34.044Z,100540.63
2023-02-22T18:39:03.286Z,100542.69
2023-02-22T18:41:31.430Z,100540.78
2023-02-22T18:44:00.529Z,100538.16
2023-02-22T18:46:30.288Z,100535.72
2023-02-22T18:48:59.254Z,100539.56
2023-02-22T18:51:30.059Z,100536.41
2023-02-22T18:54:01.067Z,100541.41
2023-02-22T18:56:30.939Z,100534.97
2023-02-22T18:59:00.486Z,100543.44
2023-02-22T19:01:29.426Z,100545.00
2023-02-22T19:03:57.752Z,100543.44
2023-02-22T19:06:26.039Z,100541.06
2023-02-22T19:08:55.557Z,100540.78
2023-02-22T19:11:25.695Z,100542.88
2023-02-22T19:13:58.260Z,100546.16
2023-02-22T19:16:27.865Z,100554.38
2023-02-22T19:18:58.116Z,100557.59
2023-02-22T19:21:27.740Z,100557.56
2023-02-22T19:23:57.336Z,100556.81
2023-02-22T19:26:27.707Z,100561.34
2023-02-22T19:28:57.706Z,100564.81
2023-02-22T19:31:30.300Z,100569.88
2023-02-22T19:34:02.089Z,100563.44
2023-02-22T19:36:30.599Z,100577.31
2023-02-22T19:39:02.058Z,100575.47
2023-02-22T19:41:30.718Z,100574.44
2023-02-22T19:43:59.451Z,100576.81
2023-02-22T19:46:28.303Z,100574.75
2023-02-22T19:48:57.818Z,100585.47
2023-02-22T19:51:28.847Z,100585.41
2023-02-22T19:53:59.928Z,100582.25
2023-02-22T19:56:31.179Z,100576.69
2023-02-22T19:59:01.334Z,100586.56
2023-02-22T20:01:33.277Z,100580.72
2023-02-22T20:04:03.852Z,100583.94
2023-02-22T20:06:35.167Z,100580.22
2023-02-22T20:09:04.287Z,100583.72
2023-02-22T20:11:34.445Z,100583.47
2023-02-22T20:14:02.618Z,100582.38
2023-02-22T20:16:31.219Z,100580.81
2023-02-22T20:18:59.958Z,100584.50
2023-02-22T20:21:31.292Z,100591.94
2023-02-22T20:23:59.454Z,100593.81
2023-02-22T20:26:30.607Z,100583.44
2023-02-22T20:29:00.854Z,100588.94
2023-02-22T20:31:29.707Z,100588.22
2023-02-22T20:34:00.485Z,100591.19
2023-02-22T20:36:30.129Z,100584.75
2023-02-22T20:39:00.095Z,100583.19
2023-02-22T20:41:29.974Z,100588.75
2023-02-22T20:44:00.709Z,100588.75
2023-02-22T20:46:31.887Z,100582.13
2023-02-22T20:49:01.621Z,100582.41
2023-02-22T20:51:30.199Z,100577.63
2023-02-22T20:54:00.050Z,100587.78
2023-02-22T20:56:30.095Z,100586.44
2023-02-22T20:59:02.297Z,100586.19
2023-02-22T21:01:30.888Z,100595.25
2023-02-22T21:04:02.130Z,100594.22
2023-02-22T21:06:31.068Z,100587.31
2023-02-22T21:09:02.739Z,100591.84
2023-02-22T21:11:32.653Z,100585.97
2023-02-22T21:14:03.074Z,100588.38
2023-02-22T21:16:34.127Z,100585.47
2023-02-22T21:19:04.389Z,100585.47
2023-02-22T21:21:32.943Z,100582.47
2023-02-22T21:24:02.228Z,100576.09
2023-02-22T21:26:32.366Z,100582.22
2023-02-22T21:29:04.915Z,100583.56
2023-02-22T21:31:34.746Z,100581.69
2023-02-22T21:34:04.281Z,100579.03
2023-02-22T21:36:33.207Z,100575.28
2023-02-22T21:39:08.596Z,100568.34
2023-02-22T21:41:39.209Z,100577.69
2023-02-22T21:44:10.142Z,100574.50
2023-02-22T21:46:38.485Z,100575.28
2023-02-22T21:49:06.753Z,100575.84
2023-02-22T21:51:37.814Z,100575.09
2023-02-22T21:54:08.704Z,100570.88
2023-02-22T21:56:38.649Z,100568.75
2023-02-22T21:59:12.780Z,100571.41
2023-02-22T22:01:47.305Z,100572.19
2023-02-22T22:04:18.970Z,100575.94
2023-02-22T22:06:48.791Z,100573.03
2023-02-22T22:09:20.222Z,100567.16
2023-02-22T22:11:50.791Z,100581.00
2023-02-22T22:14:22.070Z,100581.53
2023-02-22T22:16:51.356Z,100578.88
2023-02-22T22:19:19.571Z,100573.28
2023-02-22T22:21:49.317Z,100587.38
2023-02-22T22:24:20.629Z,100577.00
2023-02-22T22:26:51.202Z,100580.72
2023-02-22T22:29:20.771Z,100583.06
2023-02-22T22:31:49.021Z,100584.66
2023-02-22T22:34:17.524Z,100582.75
2023-02-22T22:36:45.943Z,100586.25
2023-02-22T22:39:14.159Z,100589.69
2023-02-22T22:41:44.161Z,100583.28
2023-02-22T22:44:15.391Z,100581.97
2023-02-22T22:46:49.271Z,100586.81
2023-02-22T22:49:18.533Z,100579.13
2023-02-22T22:51:47.530Z,100575.66
2023-02-22T22:54:16.077Z,100579.34
2023-02-22T22:56:44.330Z,100572.72
2023-02-22T22:59:13.547Z,100585.19
2023-02-22T23:01:45.419Z,100584.16
2023-02-22T23:04:16.535Z,100581.47
2023-02-22T23:06:46.294Z,100578.31
2023-02-22T23:09:18.901Z,100583.09
2023-02-22T23:11:50.987Z,100583.88
2023-02-22T23:14:21.038Z,100581.75
2023-02-22T23:16:52.348Z,100590.81
2023-02-22T23:19:20.992Z,100574.34
2023-02-22T23:21:50.892Z,100585.25
2023-02-22T23:24:21.391Z,100582.56
2023-02-22T23:26:49.940Z,100583.09
2023-02-22T23:29:19.943Z,100584.97
2023-02-22T23:31:49.089Z,100590.00
2023-02-22T23:34:21.363Z,100586.28
2023-02-22T23:36:50.189Z,100587.63
2023-02-22T23:39:21.576Z,100592.94
2023-02-22T23:41:51.652Z,100600.66
2023-02-22T23:44:20.301Z,100587.91
2023-02-22T23:46:49.836Z,100590.28
2023-02-22T23:49:20.642Z,100591.34
2023-02-22T23:51:50.298Z,100587.88
2023-02-22T23:54:20.419Z,100591.34
2023-02-22T23:56:56.720Z,100600.66
2023-02-22T23:59:25.991Z,100594.81
